Armstrong, Missouri
Current Conditions -  °F | °C
As of 12:15 PM on Thursday 27 Nov 2014 (Local Time) from KVER Reporting Station
Overcast Overcast  
Wind Chill: 27°   Ceiling: 8500
Heat Index: 33°   Visibility: 10mi
Dew Point: 22°   Wind: 6mph
Humidity: 66%   Direction: 300°WNW
Pressure: 30.49"   Gusts: NA
Location:  39.27°N, 92.7°W
Report Text: KVER 271815Z AUTO 30005KT 10SM SCT023 OVC085 00/M05 A3049 RMK AO2 T00041053
Loading
Personal Weather Stations






























Interactive Weather Map New forecast layout! Learn more

10-Day Weather Forecast

Advertisements
Track Severe Weather on mobile